Time;durP1;ratioP1;P1;durP2;ratioP2;P2;SDS_P1;SDS_P2;PMS_P1;PMS_P2;Temp;Humidity;BMP_temperature;BMP_pressure;BME280_temperature;BME280_humidity;BME280_pressure;Samples;Min_cycle;Max_cycle;Signal;HPM_P1;HPM_P2
2022/03/10 00:02:21;;;;;;;27.90;17.02;;;8.90;41.20;;;;;;5018366;28;20165;-65
2022/03/10 00:04:47;;;;;;;26.48;16.05;;;8.80;41.60;;;;;;5034855;28;20041;-67
2022/03/10 00:07:12;;;;;;;23.80;15.27;;;8.80;41.40;;;;;;5017315;28;20031;-68
2022/03/10 00:09:40;;;;;;;27.38;17.67;;;8.80;41.20;;;;;;5035192;28;20029;-65
2022/03/10 00:12:06;;;;;;;20.10;14.52;;;8.70;41.40;;;;;;5034158;28;20038;-67
2022/03/10 00:14:32;;;;;;;23.05;16.23;;;8.70;41.90;;;;;;5034345;28;20091;-69
2022/03/10 00:16:58;;;;;;;23.73;14.93;;;8.60;42.20;;;;;;5034610;28;20021;-73
2022/03/10 00:19:24;;;;;;;23.85;15.18;;;8.50;42.00;;;;;;5034258;28;20033;-65
2022/03/10 00:21:51;;;;;;;19.92;14.30;;;8.50;42.60;;;;;;5016247;28;20025;-69
2022/03/10 00:24:18;;;;;;;21.98;13.77;;;8.40;44.30;;;;;;5033903;28;20105;-69
2022/03/10 00:26:45;;;;;;;23.50;14.38;;;8.40;42.70;;;;;;5035282;28;20478;-64
2022/03/10 00:29:11;;;;;;;21.83;14.32;;;8.40;42.70;;;;;;5018014;28;20033;-69
2022/03/10 00:31:39;;;;;;;22.17;14.18;;;8.40;42.70;;;;;;5035213;28;20030;-67
2022/03/10 00:34:05;;;;;;;19.75;13.48;;;8.30;42.60;;;;;;5017063;28;20037;-66
2022/03/10 00:36:31;;;;;;;18.92;12.95;;;8.40;43.00;;;;;;5016300;28;20029;-67
2022/03/10 00:38:57;;;;;;;20.73;13.27;;;8.40;43.30;;;;;;5033983;28;20036;-65
2022/03/10 00:41:22;;;;;;;18.58;13.05;;;8.30;42.80;;;;;;5033589;28;20084;-68
2022/03/10 00:43:48;;;;;;;19.60;12.70;;;8.30;43.20;;;;;;5016185;28;20430;-64
2022/03/10 00:46:14;;;;;;;22.33;12.60;;;8.30;42.70;;;;;;5033992;28;20038;-69
2022/03/10 00:48:40;;;;;;;19.58;12.85;;;8.30;42.50;;;;;;5033990;28;20029;-65
2022/03/10 00:51:07;;;;;;;20.48;13.13;;;8.20;42.60;;;;;;5034344;28;20521;-71
2022/03/10 00:53:34;;;;;;;19.30;12.88;;;8.20;43.00;;;;;;5034281;28;20108;-71
2022/03/10 00:55:59;;;;;;;20.38;13.57;;;8.20;42.80;;;;;;5034261;28;20037;-65
2022/03/10 00:58:25;;;;;;;20.85;13.77;;;8.10;43.00;;;;;;5033616;28;20032;-65
2022/03/10 01:00:51;;;;;;;20.60;13.75;;;8.10;43.10;;;;;;5033653;28;20017;-65
2022/03/10 01:03:17;;;;;;;18.40;12.68;;;8.00;43.00;;;;;;5033662;28;20501;-66
2022/03/10 01:05:43;;;;;;;20.48;13.02;;;8.00;43.20;;;;;;5033464;28;20458;-65
2022/03/10 01:08:09;;;;;;;19.88;11.95;;;7.90;43.20;;;;;;5033374;28;20026;-68
2022/03/10 01:10:35;;;;;;;19.20;12.75;;;7.90;43.80;;;;;;5015667;28;20021;-65
2022/03/10 01:13:01;;;;;;;18.65;12.65;;;7.80;43.60;;;;;;5033979;28;20040;-65
2022/03/10 01:15:28;;;;;;;18.55;12.43;;;7.80;43.80;;;;;;5035581;28;20478;-68
2022/03/10 01:17:55;;;;;;;19.35;11.68;;;7.70;43.70;;;;;;5036568;28;20029;-64
2022/03/10 01:20:23;;;;;;;18.42;11.95;;;7.70;44.20;;;;;;5036927;28;20115;-65
2022/03/10 01:22:49;;;;;;;18.52;12.63;;;7.70;44.20;;;;;;5033163;28;20021;-67
2022/03/10 01:25:16;;;;;;;20.08;12.07;;;7.60;44.00;;;;;;4999204;28;20037;-68
2022/03/10 01:27:42;;;;;;;17.92;11.88;;;7.60;44.70;;;;;;5033064;28;20026;-70
2022/03/10 01:30:09;;;;;;;19.65;11.95;;;7.60;44.30;;;;;;5033109;28;20506;-65
2022/03/10 01:32:35;;;;;;;17.25;11.60;;;7.70;44.70;;;;;;5033040;28;20390;-65
2022/03/10 01:35:03;;;;;;;19.65;11.77;;;7.70;44.30;;;;;;5015405;28;20022;-65
2022/03/10 01:37:30;;;;;;;17.95;11.07;;;7.70;44.40;;;;;;5015860;28;20124;-66
2022/03/10 01:39:57;;;;;;;19.38;11.00;;;7.60;44.90;;;;;;5015617;28;20041;-68
2022/03/10 01:42:23;;;;;;;19.30;11.93;;;7.70;44.20;;;;;;5032850;28;20109;-67
2022/03/10 01:44:53;;;;;;;19.30;11.65;;;7.70;43.50;;;;;;5015188;28;20128;-76
2022/03/10 01:47:19;;;;;;;19.30;11.27;;;7.70;43.40;;;;;;5032776;28;20202;-74
2022/03/10 01:49:46;;;;;;;21.02;11.45;;;7.80;43.70;;;;;;5032635;28;20029;-69
2022/03/10 01:52:14;;;;;;;18.55;11.73;;;7.80;43.50;;;;;;5032953;28;20186;-72
2022/03/10 01:54:41;;;;;;;17.85;11.13;;;7.80;44.60;;;;;;5015611;28;20403;-73
2022/03/10 01:57:07;;;;;;;18.27;11.18;;;7.80;43.40;;;;;;5033467;28;20029;-64
2022/03/10 01:59:34;;;;;;;21.23;11.30;;;7.80;43.10;;;;;;5033241;28;20435;-65
2022/03/10 02:02:00;;;;;;;17.83;11.68;;;7.80;43.30;;;;;;5033261;28;20387;-65
2022/03/10 02:04:26;;;;;;;19.40;11.48;;;7.80;43.40;;;;;;5033449;28;20045;-65
2022/03/10 02:06:53;;;;;;;18.23;11.20;;;7.80;43.40;;;;;;5033130;28;20080;-66
2022/03/10 02:12:06;;;;;;;17.20;10.57;;;7.70;44.10;;;;;;5032840;28;20067;-65
2022/03/10 02:17:22;;;;;;;17.08;11.10;;;7.70;44.20;;;;;;5033367;28;20101;-66
2022/03/10 02:19:55;;;;;;;19.90;11.45;;;7.60;44.40;;;;;;5033136;28;20049;-67
2022/03/10 02:22:22;;;;;;;15.75;9.15;;;7.70;44.70;;;;;;5033016;28;20029;-65
2022/03/10 02:24:54;;;;;;;17.25;11.70;;;7.60;43.40;;;;;;5032885;28;20060;-66
2022/03/10 02:27:22;;;;;;;17.27;11.23;;;7.60;44.10;;;;;;5032900;28;20113;-66
2022/03/10 02:29:57;;;;;;;17.42;10.05;;;7.60;43.40;;;;;;5034458;28;20029;-66
2022/03/10 02:32:22;;;;;;;17.92;10.68;;;7.60;43.30;;;;;;5037003;28;20447;-67
2022/03/10 02:34:50;;;;;;;17.48;11.00;;;7.60;43.80;;;;;;5037284;28;20025;-68
2022/03/10 02:37:17;;;;;;;16.65;10.40;;;7.60;44.80;;;;;;5019250;28;20418;-66
2022/03/10 02:39:45;;;;;;;17.35;10.70;;;7.60;43.60;;;;;;5035859;28;20434;-65
2022/03/10 02:42:12;;;;;;;18.40;10.82;;;7.60;44.70;;;;;;5036106;28;20113;-71
2022/03/10 02:44:46;;;;;;;18.73;10.60;;;7.60;43.50;;;;;;5035905;28;20073;-72
2022/03/10 02:47:12;;;;;;;19.17;11.00;;;7.70;43.80;;;;;;5035852;28;20025;-67
2022/03/10 02:49:39;;;;;;;17.98;10.82;;;7.60;43.60;;;;;;5035883;28;20033;-65
2022/03/10 02:52:05;;;;;;;19.73;11.88;;;7.70;44.10;;;;;;5035895;28;20049;-70
2022/03/10 02:54:31;;;;;;;17.55;10.60;;;7.60;44.10;;;;;;5035830;28;20509;-64
2022/03/10 02:56:57;;;;;;;16.13;10.18;;;7.60;43.80;;;;;;5035856;28;20025;-65
2022/03/10 02:59:23;;;;;;;18.10;11.02;;;7.60;44.00;;;;;;5017853;28;20030;-65
2022/03/10 03:01:49;;;;;;;18.00;11.40;;;7.60;44.10;;;;;;5035672;28;20087;-66
2022/03/10 03:04:15;;;;;;;16.73;11.27;;;7.50;44.10;;;;;;5035689;28;20091;-65
2022/03/10 03:06:41;;;;;;;18.10;12.07;;;7.40;44.50;;;;;;5036233;28;20032;-65
2022/03/10 03:09:07;;;;;;;18.90;11.90;;;7.40;44.40;;;;;;5035725;28;20391;-64
2022/03/10 03:11:33;;;;;;;17.63;11.77;;;7.40;45.30;;;;;;5036031;28;20022;-65
2022/03/10 03:14:01;;;;;;;17.77;11.23;;;7.40;45.50;;;;;;5035942;28;20032;-68
2022/03/10 03:16:27;;;;;;;20.85;12.20;;;7.40;45.70;;;;;;5018015;28;20033;-64
2022/03/10 03:18:54;;;;;;;18.83;12.00;;;7.30;45.40;;;;;;5035204;28;20132;-67
2022/03/10 03:21:20;;;;;;;17.77;12.13;;;7.30;45.90;;;;;;5035324;28;20025;-66
2022/03/10 03:23:46;;;;;;;20.27;11.82;;;7.30;45.50;;;;;;5035432;28;20192;-65
2022/03/10 03:26:13;;;;;;;18.83;12.25;;;7.30;46.20;;;;;;5018400;28;20039;-65
2022/03/10 03:28:38;;;;;;;16.67;10.90;;;7.30;46.00;;;;;;5035215;28;20021;-65
2022/03/10 03:31:04;;;;;;;17.10;11.02;;;7.20;45.90;;;;;;5035208;28;20498;-66
2022/03/10 03:33:30;;;;;;;18.73;11.30;;;7.10;46.10;;;;;;5034593;28;20042;-66
2022/03/10 03:35:57;;;;;;;17.00;10.93;;;7.10;45.90;;;;;;5035074;28;20429;-65
2022/03/10 03:38:23;;;;;;;17.08;11.05;;;7.10;45.80;;;;;;5035053;28;20033;-64
2022/03/10 03:40:49;;;;;;;17.75;11.02;;;7.10;45.90;;;;;;5034410;28;20403;-64
2022/03/10 03:43:15;;;;;;;16.65;10.13;;;7.00;45.80;;;;;;5034695;28;20113;-64
2022/03/10 03:45:40;;;;;;;17.58;10.93;;;7.00;45.70;;;;;;5035002;28;20380;-64
2022/03/10 03:48:06;;;;;;;21.38;11.20;;;7.00;46.00;;;;;;5034800;28;20025;-65
2022/03/10 03:50:32;;;;;;;17.52;11.13;;;7.00;46.00;;;;;;5017373;28;20030;-65
2022/03/10 03:52:58;;;;;;;17.48;10.88;;;6.90;46.20;;;;;;5034800;28;20025;-63
2022/03/10 03:55:23;;;;;;;18.45;11.23;;;6.90;46.40;;;;;;5034556;28;20026;-67
2022/03/10 03:57:50;;;;;;;17.83;10.52;;;6.90;46.30;;;;;;5034711;28;20037;-65
2022/03/10 04:00:15;;;;;;;18.58;11.18;;;6.90;46.20;;;;;;5034643;28;20025;-66
2022/03/10 04:02:42;;;;;;;18.27;10.48;;;6.90;46.40;;;;;;5034666;28;20033;-64
2022/03/10 04:05:09;;;;;;;15.52;10.68;;;6.90;46.40;;;;;;5034786;28;20076;-65
2022/03/10 04:07:35;;;;;;;18.52;11.55;;;6.90;46.10;;;;;;5034759;28;20025;-65
2022/03/10 04:10:01;;;;;;;17.00;10.23;;;6.90;46.40;;;;;;5034630;28;20103;-63
2022/03/10 04:12:27;;;;;;;17.85;11.23;;;6.90;46.50;;;;;;5034552;28;20087;-65
2022/03/10 04:14:53;;;;;;;17.48;10.95;;;6.90;46.50;;;;;;5034510;28;20429;-65
2022/03/10 04:17:21;;;;;;;19.10;10.93;;;6.90;46.50;;;;;;5034279;28;20041;-65
2022/03/10 04:19:47;;;;;;;19.05;10.63;;;6.90;46.60;;;;;;5034053;28;20056;-65
2022/03/10 04:22:12;;;;;;;16.42;10.18;;;6.90;46.50;;;;;;5034180;28;20467;-66
2022/03/10 04:24:38;;;;;;;18.42;10.75;;;6.80;46.60;;;;;;5016343;28;20147;-65
2022/03/10 04:27:04;;;;;;;18.23;10.52;;;6.80;46.60;;;;;;5034069;28;20430;-66
2022/03/10 04:29:30;;;;;;;17.30;9.60;;;6.80;46.50;;;;;;5033865;28;20029;-64
2022/03/10 04:31:55;;;;;;;16.55;9.70;;;6.80;46.50;;;;;;5016002;28;20040;-64
2022/03/10 04:34:21;;;;;;;17.50;10.13;;;6.90;46.80;;;;;;5033744;28;20462;-64
2022/03/10 04:36:46;;;;;;;19.55;9.95;;;6.90;46.60;;;;;;5033901;28;20467;-65
2022/03/10 04:39:12;;;;;;;17.02;10.02;;;6.80;46.50;;;;;;5033767;28;20033;-68
2022/03/10 04:41:38;;;;;;;16.50;9.88;;;6.80;46.50;;;;;;5033671;28;20482;-64
2022/03/10 04:44:04;;;;;;;17.13;9.60;;;6.70;46.90;;;;;;5033615;28;20029;-64
2022/03/10 04:46:31;;;;;;;14.80;9.75;;;6.80;46.80;;;;;;5033842;28;20028;-65
2022/03/10 04:48:57;;;;;;;15.43;10.40;;;6.80;46.60;;;;;;5033519;28;20056;-68
2022/03/10 04:51:22;;;;;;;17.17;9.95;;;6.80;46.50;;;;;;5033634;28;20053;-64
2022/03/10 04:53:48;;;;;;;17.63;10.55;;;6.70;46.40;;;;;;5033418;28;20029;-65
2022/03/10 04:56:14;;;;;;;15.35;9.07;;;6.70;46.50;;;;;;5033625;28;20030;-68
2022/03/10 04:58:39;;;;;;;17.80;10.43;;;6.70;46.40;;;;;;5033554;28;20032;-64
2022/03/10 05:01:05;;;;;;;18.00;10.20;;;6.80;46.60;;;;;;5034545;28;20081;-65
2022/03/10 05:03:32;;;;;;;16.70;10.02;;;6.80;46.40;;;;;;5034482;28;20022;-65
2022/03/10 05:05:58;;;;;;;16.60;10.57;;;6.70;47.10;;;;;;5033784;28;20064;-67
2022/03/10 05:08:24;;;;;;;15.40;9.57;;;6.70;46.80;;;;;;5033312;28;20498;-65
2022/03/10 05:10:50;;;;;;;16.70;10.38;;;6.70;46.70;;;;;;5033574;28;20044;-71
2022/03/10 05:13:15;;;;;;;18.17;11.38;;;6.70;46.90;;;;;;5033598;28;20486;-64
2022/03/10 05:15:41;;;;;;;18.73;10.75;;;6.60;46.70;;;;;;5033271;28;20501;-65
2022/03/10 05:18:07;;;;;;;19.77;11.32;;;6.70;47.30;;;;;;5033424;28;20021;-65
2022/03/10 05:20:33;;;;;;;20.25;11.00;;;6.60;47.60;;;;;;5033604;28;20029;-65
2022/03/10 05:23:00;;;;;;;19.13;11.48;;;6.60;47.80;;;;;;5033294;28;20025;-65
2022/03/10 05:25:32;;;;;;;17.60;10.98;;;6.60;47.70;;;;;;5033290;28;20028;-66
2022/03/10 05:27:58;;;;;;;19.55;11.32;;;6.60;47.70;;;;;;5033054;28;20029;-64
2022/03/10 05:30:24;;;;;;;18.75;11.27;;;6.60;47.70;;;;;;5033143;28;20101;-66
2022/03/10 05:32:50;;;;;;;20.42;11.60;;;6.60;48.00;;;;;;5032858;28;20163;-65
2022/03/10 05:35:17;;;;;;;22.92;11.95;;;6.50;48.20;;;;;;5032816;28;20037;-66
2022/03/10 05:37:44;;;;;;;18.98;11.82;;;6.50;47.80;;;;;;5015196;28;20387;-65
2022/03/10 05:40:13;;;;;;;18.23;10.93;;;6.50;47.60;;;;;;5032908;28;20448;-64
2022/03/10 05:42:39;;;;;;;22.80;11.13;;;6.50;47.90;;;;;;5033094;28;20030;-65
2022/03/10 05:45:07;;;;;;;18.25;11.30;;;6.50;47.80;;;;;;5033068;28;20029;-65
2022/03/10 05:47:33;;;;;;;23.67;10.93;;;6.50;47.90;;;;;;5033161;28;20436;-65
2022/03/10 05:49:58;;;;;;;24.92;11.38;;;6.50;47.90;;;;;;5032977;28;20116;-65
2022/03/10 05:52:24;;;;;;;27.42;12.75;;;6.50;47.80;;;;;;5015095;28;20033;-65
2022/03/10 05:54:49;;;;;;;18.90;10.82;;;6.60;47.90;;;;;;5032646;28;20045;-66
2022/03/10 05:57:15;;;;;;;22.98;10.10;;;6.60;48.00;;;;;;5032639;28;20021;-65
2022/03/10 05:59:41;;;;;;;16.48;10.40;;;6.60;48.10;;;;;;5032551;28;20034;-65
2022/03/10 06:02:07;;;;;;;16.75;9.38;;;6.60;48.10;;;;;;5032699;28;20022;-65
2022/03/10 06:04:33;;;;;;;18.30;10.27;;;6.60;48.00;;;;;;5033547;28;20033;-65
2022/03/10 06:07:00;;;;;;;18.23;10.52;;;6.60;48.20;;;;;;5036417;28;20030;-65
2022/03/10 06:09:26;;;;;;;19.30;11.15;;;6.50;47.90;;;;;;5036472;28;20025;-65
2022/03/10 06:11:51;;;;;;;16.65;10.50;;;6.40;48.50;;;;;;5036291;28;20032;-65
2022/03/10 06:14:18;;;;;;;17.83;11.05;;;6.40;48.50;;;;;;5018294;28;20047;-65
2022/03/10 06:16:44;;;;;;;19.40;11.18;;;6.40;48.20;;;;;;5036291;28;20452;-67
2022/03/10 06:19:10;;;;;;;19.65;10.48;;;6.50;48.70;;;;;;5036431;28;20116;-67
2022/03/10 06:21:37;;;;;;;18.58;11.45;;;6.60;48.70;;;;;;5036676;28;20053;-67
2022/03/10 06:24:03;;;;;;;18.40;11.75;;;6.60;48.30;;;;;;5036580;28;20033;-64
2022/03/10 06:26:28;;;;;;;21.70;11.55;;;6.80;48.30;;;;;;5018692;28;20466;-66
2022/03/10 06:28:54;;;;;;;16.98;11.02;;;6.80;48.10;;;;;;5036644;28;20061;-66
2022/03/10 06:31:23;;;;;;;17.83;10.98;;;6.90;48.10;;;;;;5036269;28;20494;-65
2022/03/10 06:33:49;;;;;;;20.30;11.70;;;7.10;48.20;;;;;;5036061;28;20387;-64
2022/03/10 06:36:14;;;;;;;22.90;12.18;;;7.30;47.90;;;;;;5036398;28;20034;-66
2022/03/10 06:38:41;;;;;;;18.70;11.15;;;7.40;47.70;;;;;;5036368;28;20425;-65
2022/03/10 06:41:07;;;;;;;19.30;11.25;;;7.60;47.30;;;;;;5017681;28;20058;-63
2022/03/10 06:43:33;;;;;;;24.70;13.55;;;7.80;47.10;;;;;;5034471;28;20402;-70
2022/03/10 06:46:24;;;;;;;17.02;11.07;;;8.00;47.10;;;;;;5035776;28;20038;-65
2022/03/10 06:48:53;;;;;;;28.33;12.65;;;8.10;46.50;;;;;;5035638;28;20201;-66
2022/03/10 06:51:19;;;;;;;16.88;10.65;;;8.20;46.50;;;;;;5036189;28;20386;-64
2022/03/10 06:53:45;;;;;;;19.38;10.68;;;8.30;45.80;;;;;;5035761;28;20136;-65
2022/03/10 06:56:18;;;;;;;20.77;9.43;;;8.30;45.70;;;;;;5035926;28;20033;-64
2022/03/10 06:58:44;;;;;;;26.38;10.52;;;8.40;45.70;;;;;;5035834;28;20118;-65
2022/03/10 07:01:09;;;;;;;16.60;10.40;;;8.60;45.50;;;;;;5034614;28;20429;-65
2022/03/10 07:03:35;;;;;;;22.80;10.65;;;8.70;45.10;;;;;;5018146;28;20030;-65
2022/03/10 07:06:04;;;;;;;18.38;10.02;;;8.80;44.00;;;;;;5018123;28;20029;-75
2022/03/10 07:08:30;;;;;;;20.85;10.18;;;8.90;44.80;;;;;;5035218;28;20025;-66
2022/03/10 07:10:57;;;;;;;15.52;9.55;;;9.10;43.10;;;;;;5018428;28;20030;-67
2022/03/10 07:13:23;;;;;;;19.98;10.60;;;9.20;43.00;;;;;;5035300;28;20057;-65
2022/03/10 07:15:50;;;;;;;18.02;9.75;;;9.30;42.90;;;;;;5034462;28;20068;-65
2022/03/10 07:18:16;;;;;;;17.20;10.07;;;9.40;44.10;;;;;;5035192;28;20017;-69
2022/03/10 07:20:43;;;;;;;15.70;10.25;;;9.50;43.70;;;;;;5035427;28;20029;-67
2022/03/10 07:23:09;;;;;;;18.25;10.23;;;9.80;42.40;;;;;;5035484;28;20022;-69
2022/03/10 07:25:34;;;;;;;15.65;9.80;;;9.80;41.30;;;;;;5035263;28;20459;-64
2022/03/10 07:28:00;;;;;;;17.15;10.32;;;9.80;41.00;;;;;;5035248;28;20100;-67
2022/03/10 07:30:26;;;;;;;18.38;9.50;;;9.90;41.30;;;;;;5035340;28;20021;-66
2022/03/10 07:32:52;;;;;;;17.27;9.63;;;9.90;40.80;;;;;;5034943;28;20033;-64
2022/03/10 07:35:18;;;;;;;17.23;10.25;;;10.00;39.90;;;;;;5034746;28;20048;-68
2022/03/10 07:37:46;;;;;;;20.77;10.07;;;10.10;40.00;;;;;;5034834;28;20036;-65
2022/03/10 07:40:13;;;;;;;19.55;9.85;;;10.20;41.30;;;;;;5013827;28;20053;-66
2022/03/10 07:42:38;;;;;;;17.52;10.00;;;10.20;39.70;;;;;;5015398;28;20022;-66
2022/03/10 07:45:05;;;;;;;23.08;10.38;;;10.30;39.50;;;;;;5014992;28;20030;-65
2022/03/10 07:47:30;;;;;;;18.10;10.27;;;10.30;40.00;;;;;;5015188;28;20036;-70
2022/03/10 07:49:57;;;;;;;18.38;10.68;;;10.20;39.50;;;;;;5014833;28;20453;-67
2022/03/10 07:52:23;;;;;;;17.67;9.90;;;10.30;40.00;;;;;;5014771;28;20442;-69
2022/03/10 07:54:49;;;;;;;20.58;10.32;;;10.50;40.00;;;;;;5015015;28;20037;-71
2022/03/10 07:57:14;;;;;;;19.38;10.38;;;10.60;40.10;;;;;;5015540;28;20089;-69
2022/03/10 07:59:41;;;;;;;19.45;11.23;;;10.70;40.20;;;;;;5014915;28;20534;-66
2022/03/10 08:02:07;;;;;;;17.40;10.40;;;10.70;39.70;;;;;;5014713;28;20034;-67
2022/03/10 08:04:32;;;;;;;21.98;11.48;;;10.70;39.70;;;;;;5014632;28;20026;-68
2022/03/10 08:06:58;;;;;;;16.92;10.50;;;10.70;39.70;;;;;;5014557;28;20037;-73
2022/03/10 08:09:24;;;;;;;20.90;10.82;;;10.70;39.60;;;;;;5013357;28;20577;-70
2022/03/10 08:11:55;;;;;;;19.08;10.25;;;10.60;39.60;;;;;;5015384;28;20101;-66
2022/03/10 08:14:21;;;;;;;20.77;10.98;;;10.60;39.60;;;;;;5014021;28;20082;-68
2022/03/10 08:16:47;;;;;;;17.02;9.98;;;10.50;39.70;;;;;;5014324;28;20102;-67
2022/03/10 08:19:17;;;;;;;21.52;10.10;;;10.50;40.50;;;;;;5014180;28;20026;-74
2022/03/10 08:21:44;;;;;;;18.70;10.77;;;10.50;40.10;;;;;;5014375;28;20061;-68
2022/03/10 08:24:10;;;;;;;16.60;9.57;;;10.40;39.50;;;;;;5014980;28;20037;-69
2022/03/10 08:26:36;;;;;;;18.95;10.80;;;10.40;39.70;;;;;;5014446;28;20529;-71
2022/03/10 08:29:02;;;;;;;18.38;9.80;;;10.30;39.50;;;;;;5013935;28;20387;-67
2022/03/10 08:31:29;;;;;;;17.50;10.40;;;10.30;39.40;;;;;;5014285;28;20165;-69
2022/03/10 08:33:58;;;;;;;18.13;9.80;;;10.30;40.10;;;;;;5014226;28;20365;-69
2022/03/10 08:36:23;;;;;;;21.17;11.13;;;10.40;39.70;;;;;;5014181;28;20033;-71
2022/03/10 08:38:49;;;;;;;19.05;10.43;;;10.50;39.70;;;;;;5013981;28;20022;-66
2022/03/10 08:41:15;;;;;;;19.02;10.05;;;10.50;39.90;;;;;;5027096;28;20076;-67
2022/03/10 08:43:41;;;;;;;19.90;11.40;;;10.50;40.00;;;;;;5033830;28;20048;-69
2022/03/10 08:46:06;;;;;;;19.77;11.68;;;10.60;39.80;;;;;;5034017;28;20029;-71
2022/03/10 08:48:34;;;;;;;16.02;9.32;;;10.70;39.90;;;;;;5033676;28;20419;-69
2022/03/10 08:51:03;;;;;;;19.27;9.45;;;10.80;39.90;;;;;;5033526;28;20032;-73
2022/03/10 08:53:30;;;;;;;16.23;9.77;;;10.80;40.30;;;;;;5033574;28;20018;-78
2022/03/10 08:55:56;;;;;;;16.27;10.07;;;10.70;39.50;;;;;;5015960;28;20116;-75
2022/03/10 08:58:22;;;;;;;22.38;10.68;;;10.70;39.60;;;;;;5033202;28;20083;-79
2022/03/10 09:00:48;;;;;;;15.45;9.60;;;10.70;39.80;;;;;;5033524;28;20033;-70
2022/03/10 09:03:15;;;;;;;16.75;10.00;;;10.80;39.80;;;;;;5015524;28;20041;-75
2022/03/10 09:05:42;;;;;;;15.45;10.10;;;10.80;40.20;;;;;;5015645;28;20041;-66
2022/03/10 09:08:09;;;;;;;18.75;9.32;;;10.80;39.60;;;;;;5033291;28;20024;-73
2022/03/10 09:10:35;;;;;;;21.23;9.90;;;10.80;39.90;;;;;;5033135;28;20045;-75
2022/03/10 09:13:01;;;;;;;18.98;9.73;;;10.90;40.10;;;;;;5035627;28;20116;-76
2022/03/10 09:15:29;;;;;;;16.35;9.30;;;11.00;40.20;;;;;;5033593;28;20156;-66
2022/03/10 09:17:55;;;;;;;17.23;9.27;;;11.00;40.40;;;;;;5033306;28;20022;-71
2022/03/10 09:20:22;;;;;;;17.73;10.70;;;11.10;40.20;;;;;;5033047;28;20104;-67
2022/03/10 09:22:48;;;;;;;19.73;9.93;;;11.20;40.60;;;;;;5032944;28;20028;-68
2022/03/10 09:25:15;;;;;;;14.05;9.60;;;11.20;40.30;;;;;;5032996;28;20097;-71
2022/03/10 09:27:43;;;;;;;18.85;10.57;;;11.20;40.50;;;;;;5033208;28;20029;-69
2022/03/10 09:30:11;;;;;;;20.80;10.93;;;11.30;40.90;;;;;;5032870;28;20018;-69
2022/03/10 09:32:38;;;;;;;15.77;9.73;;;11.30;40.80;;;;;;5033281;28;20025;-66
2022/03/10 09:35:06;;;;;;;17.27;9.82;;;11.40;41.60;;;;;;5032857;28;20095;-66
2022/03/10 09:37:32;;;;;;;14.05;9.45;;;11.40;41.60;;;;;;5015083;28;20033;-66
2022/03/10 09:39:58;;;;;;;14.95;9.27;;;11.50;41.10;;;;;;5032269;28;20057;-67
2022/03/10 09:42:28;;;;;;;19.75;9.23;;;11.60;41.30;;;;;;5032689;28;20029;-66
2022/03/10 09:44:58;;;;;;;14.68;9.65;;;11.70;41.30;;;;;;5032501;28;20040;-65
2022/03/10 09:47:23;;;;;;;15.52;9.85;;;11.80;41.30;;;;;;5032096;28;20021;-66
2022/03/10 09:49:49;;;;;;;16.55;9.95;;;11.90;41.40;;;;;;5032650;28;20029;-70
2022/03/10 09:52:16;;;;;;;17.65;10.20;;;12.00;41.40;;;;;;5032805;28;20109;-67
2022/03/10 09:54:44;;;;;;;17.58;10.45;;;12.10;41.50;;;;;;5032683;28;20087;-67
2022/03/10 09:57:11;;;;;;;14.43;9.48;;;12.20;41.70;;;;;;5015183;28;20026;-65
2022/03/10 09:59:50;;;;;;;19.52;11.20;;;12.20;41.60;;;;;;5032233;28;20036;-66
2022/03/10 10:02:16;;;;;;;17.98;10.95;;;12.30;41.80;;;;;;5032395;28;20079;-69
2022/03/10 10:04:43;;;;;;;19.15;10.80;;;12.40;42.20;;;;;;5014585;28;20033;-69
2022/03/10 10:07:10;;;;;;;18.25;10.27;;;12.50;42.20;;;;;;5032221;28;20025;-66
2022/03/10 10:09:59;;;;;;;18.08;10.85;;;12.60;42.00;;;;;;5032237;28;20018;-69
2022/03/10 10:12:27;;;;;;;15.35;10.80;;;12.70;42.20;;;;;;5031957;28;20033;-66
2022/03/10 10:14:54;;;;;;;16.80;10.48;;;12.80;42.00;;;;;;5031931;28;20072;-66
2022/03/10 10:17:31;;;;;;;16.35;10.68;;;12.80;42.00;;;;;;5032288;28;20047;-67
2022/03/10 10:19:59;;;;;;;21.02;10.38;;;13.00;42.00;;;;;;5014643;28;20037;-72
2022/03/10 10:22:27;;;;;;;20.38;9.73;;;13.00;41.90;;;;;;5032263;28;20029;-68
2022/03/10 10:25:08;;;;;;;15.88;9.73;;;13.20;42.00;;;;;;5032469;28;20367;-68
2022/03/10 10:27:37;;;;;;;16.42;9.32;;;13.30;42.00;;;;;;5032328;28;20029;-69
2022/03/10 10:30:40;;;;;;;16.15;9.30;;;13.40;41.80;;;;;;5014463;28;20036;-67
2022/03/10 10:33:06;;;;;;;18.55;8.18;;;13.50;41.60;;;;;;5032058;28;20102;-69
2022/03/10 10:35:33;;;;;;;21.23;7.32;;;13.60;41.80;;;;;;5031874;28;20033;-68
2022/03/10 10:38:00;;;;;;;10.35;6.93;;;13.70;41.40;;;;;;5014195;28;20463;-69
2022/03/10 10:40:27;;;;;;;17.85;7.63;;;13.70;41.30;;;;;;5031988;28;20152;-66
2022/03/10 10:42:53;;;;;;;12.43;6.70;;;13.80;40.90;;;;;;5032264;28;20391;-67
2022/03/10 10:45:38;;;;;;;11.23;7.15;;;13.80;40.70;;;;;;5032012;28;20022;-65
2022/03/10 10:48:05;;;;;;;13.45;6.93;;;14.00;40.80;;;;;;5031856;28;20025;-66
2022/03/10 10:50:33;;;;;;;10.60;6.22;;;14.10;40.80;;;;;;5032768;28;20040;-68
2022/03/10 10:52:59;;;;;;;12.82;5.82;;;14.20;40.40;;;;;;5035546;28;20025;-70
2022/03/10 10:55:33;;;;;;;12.70;5.82;;;14.30;39.70;;;;;;5035169;28;20044;-71
2022/03/10 10:58:09;;;;;;;13.55;5.82;;;14.40;39.50;;;;;;5035283;28;20025;-70
2022/03/10 11:00:43;;;;;;;13.45;5.82;;;14.50;39.50;;;;;;5035562;28;20057;-70
2022/03/10 11:03:22;;;;;;;13.52;6.28;;;14.50;38.80;;;;;;5035230;28;20449;-70
2022/03/10 11:05:49;;;;;;;12.43;5.80;;;14.60;38.80;;;;;;5035168;28;20030;-71
2022/03/10 11:08:17;;;;;;;11.65;5.50;;;14.70;39.00;;;;;;5035007;28;20375;-70
2022/03/10 11:10:43;;;;;;;9.68;5.28;;;14.80;38.40;;;;;;5034944;28;20031;-70
2022/03/10 11:13:09;;;;;;;10.50;5.97;;;14.90;38.30;;;;;;5035102;28;20116;-70
2022/03/10 11:15:37;;;;;;;9.18;5.35;;;14.90;37.70;;;;;;5017257;28;20032;-69
2022/03/10 11:18:04;;;;;;;10.05;5.55;;;15.00;38.10;;;;;;5035157;28;20034;-69
2022/03/10 11:20:31;;;;;;;21.02;6.07;;;15.10;37.60;;;;;;5034980;28;20026;-70
2022/03/10 11:23:18;;;;;;;14.35;5.93;;;15.20;37.20;;;;;;5034855;28;20479;-69
2022/03/10 11:25:48;;;;;;;13.23;5.85;;;15.30;36.70;;;;;;5035151;28;20072;-71
2022/03/10 11:28:18;;;;;;;12.65;5.15;;;15.40;37.20;;;;;;5034702;28;20033;-69
2022/03/10 11:30:55;;;;;;;8.88;5.00;;;15.60;36.40;;;;;;5034744;28;20021;-69
2022/03/10 11:33:32;;;;;;;12.35;3.97;;;15.60;33.80;;;;;;5035014;28;20018;-70
2022/03/10 11:35:58;;;;;;;9.63;3.58;;;15.60;33.10;;;;;;5034999;28;20108;-70
2022/03/10 11:39:03;;;;;;;9.35;4.10;;;15.60;34.60;;;;;;5034573;28;20047;-71
2022/03/10 11:41:46;;;;;;;9.52;4.38;;;15.70;33.40;;;;;;5022451;28;20048;-71
2022/03/10 11:44:12;;;;;;;7.85;3.42;;;15.80;33.40;;;;;;5034740;28;20033;-73
2022/03/10 11:46:55;;;;;;;6.63;3.55;;;16.00;34.20;;;;;;5034783;28;20482;-72
2022/03/10 11:49:20;;;;;;;10.38;3.25;;;16.00;32.20;;;;;;5034603;28;20014;-74
2022/03/10 11:51:51;;;;;;;7.65;2.65;;;16.10;31.70;;;;;;5034526;28;20479;-73
2022/03/10 11:54:26;;;;;;;6.50;2.33;;;16.20;31.80;;;;;;5034535;28;20061;-66
2022/03/10 11:56:52;;;;;;;7.40;3.33;;;16.20;31.60;;;;;;5034443;28;20026;-68
2022/03/10 11:59:46;;;;;;;9.93;3.50;;;16.30;31.70;;;;;;5034597;28;20030;-69
2022/03/10 12:02:37;;;;;;;9.27;3.30;;;16.30;32.20;;;;;;5033020;28;20038;-72
2022/03/10 12:05:03;;;;;;;11.73;4.07;;;16.40;32.30;;;;;;5034460;28;20112;-70
2022/03/10 12:07:30;;;;;;;8.00;4.85;;;16.40;32.10;;;;;;5034163;28;20026;-72
2022/03/10 12:10:14;;;;;;;7.95;4.28;;;16.50;32.80;;;;;;5034198;28;20083;-70
2022/03/10 12:12:45;;;;;;;8.27;3.92;;;16.50;32.50;;;;;;5034315;28;20112;-71
2022/03/10 12:15:38;;;;;;;8.40;4.30;;;16.60;32.80;;;;;;5033950;28;20033;-71
2022/03/10 12:18:24;;;;;;;7.40;4.05;;;16.70;32.00;;;;;;5070287;28;20386;-71
2022/03/10 12:20:55;;;;;;;10.52;4.50;;;16.70;32.80;;;;;;5070510;28;20029;-74
2022/03/10 12:23:26;;;;;;;10.65;5.00;;;16.80;33.00;;;;;;5070084;28;20029;-72
2022/03/10 12:25:54;;;;;;;7.65;4.53;;;16.90;32.30;;;;;;5070055;28;20036;-78
2022/03/10 12:28:42;;;;;;;8.10;4.82;;;17.00;32.60;;;;;;5070221;28;20021;-76
2022/03/10 12:31:19;;;;;;;8.82;4.35;;;17.00;32.60;;;;;;5070431;28;20385;-69
2022/03/10 12:33:50;;;;;;;6.68;4.00;;;17.10;32.90;;;;;;5070308;28;20025;-71
2022/03/10 12:36:36;;;;;;;7.53;3.72;;;17.20;32.30;;;;;;5070113;28;20079;-71
2022/03/10 12:39:09;;;;;;;7.18;4.05;;;17.30;31.70;;;;;;5070164;28;20024;-80
2022/03/10 12:42:01;;;;;;;6.30;3.50;;;17.40;32.00;;;;;;5070838;28;20021;-73
2022/03/10 12:44:27;;;;;;;11.23;4.50;;;17.50;31.20;;;;;;5070836;28;20033;-74
2022/03/10 12:46:54;;;;;;;12.68;4.13;;;17.60;31.30;;;;;;5070475;28;20426;-70